sensor_id;sensor_type;location;lat;lon;timestamp;P1;durP1;ratioP1;P2;durP2;ratioP2
18568;SDS011;14780;48.316;-1.050;2023-07-31T00:02:11;6.55;;;3.75;;
18568;SDS011;14780;48.316;-1.050;2023-07-31T00:04:56;7.77;;;4.27;;
18568;SDS011;14780;48.316;-1.050;2023-07-31T00:07:40;6.60;;;3.70;;
18568;SDS011;14780;48.316;-1.050;2023-07-31T00:10:25;6.57;;;3.50;;
18568;SDS011;14780;48.316;-1.050;2023-07-31T00:13:10;7.45;;;3.72;;
18568;SDS011;14780;48.316;-1.050;2023-07-31T00:15:54;6.60;;;4.03;;
18568;SDS011;14780;48.316;-1.050;2023-07-31T00:18:39;7.30;;;3.90;;
18568;SDS011;14780;48.316;-1.050;2023-07-31T00:21:23;7.55;;;4.03;;
18568;SDS011;14780;48.316;-1.050;2023-07-31T00:24:09;7.20;;;4.38;;
18568;SDS011;14780;48.316;-1.050;2023-07-31T00:26:54;9.40;;;4.03;;
18568;SDS011;14780;48.316;-1.050;2023-07-31T00:29:38;11.23;;;4.40;;
18568;SDS011;14780;48.316;-1.050;2023-07-31T00:32:23;7.78;;;4.28;;
18568;SDS011;14780;48.316;-1.050;2023-07-31T00:35:07;7.63;;;4.17;;
18568;SDS011;14780;48.316;-1.050;2023-07-31T00:37:52;10.00;;;4.25;;
18568;SDS011;14780;48.316;-1.050;2023-07-31T00:40:37;8.70;;;3.80;;
18568;SDS011;14780;48.316;-1.050;2023-07-31T00:43:21;7.85;;;4.50;;
18568;SDS011;14780;48.316;-1.050;2023-07-31T00:46:07;8.23;;;4.38;;
18568;SDS011;14780;48.316;-1.050;2023-07-31T00:48:51;8.73;;;4.15;;
18568;SDS011;14780;48.316;-1.050;2023-07-31T00:51:36;8.53;;;4.50;;
18568;SDS011;14780;48.316;-1.050;2023-07-31T00:54:20;8.38;;;4.03;;
18568;SDS011;14780;48.316;-1.050;2023-07-31T00:57:05;8.18;;;4.10;;
18568;SDS011;14780;48.316;-1.050;2023-07-31T00:59:52;8.38;;;4.65;;
18568;SDS011;14780;48.316;-1.050;2023-07-31T01:02:36;7.57;;;4.13;;
18568;SDS011;14780;48.316;-1.050;2023-07-31T01:05:25;7.85;;;4.43;;
18568;SDS011;14780;48.316;-1.050;2023-07-31T01:11:25;8.73;;;4.18;;
18568;SDS011;14780;48.316;-1.050;2023-07-31T01:14:13;9.30;;;4.53;;
18568;SDS011;14780;48.316;-1.050;2023-07-31T01:16:58;7.63;;;4.28;;
18568;SDS011;14780;48.316;-1.050;2023-07-31T01:19:44;8.13;;;4.50;;
18568;SDS011;14780;48.316;-1.050;2023-07-31T01:28:17;9.03;;;4.47;;
18568;SDS011;14780;48.316;-1.050;2023-07-31T01:31:07;8.30;;;4.28;;
18568;SDS011;14780;48.316;-1.050;2023-07-31T01:33:56;10.30;;;4.45;;
18568;SDS011;14780;48.316;-1.050;2023-07-31T01:36:44;9.48;;;4.70;;
18568;SDS011;14780;48.316;-1.050;2023-07-31T01:39:29;7.40;;;4.20;;
18568;SDS011;14780;48.316;-1.050;2023-07-31T01:42:13;9.73;;;4.47;;
18568;SDS011;14780;48.316;-1.050;2023-07-31T01:44:58;8.15;;;4.80;;
18568;SDS011;14780;48.316;-1.050;2023-07-31T01:47:43;8.90;;;4.22;;
18568;SDS011;14780;48.316;-1.050;2023-07-31T01:50:27;10.00;;;4.90;;
18568;SDS011;14780;48.316;-1.050;2023-07-31T01:53:12;8.35;;;4.40;;
18568;SDS011;14780;48.316;-1.050;2023-07-31T01:55:56;8.30;;;4.90;;
18568;SDS011;14780;48.316;-1.050;2023-07-31T01:58:41;12.57;;;4.68;;
18568;SDS011;14780;48.316;-1.050;2023-07-31T02:01:26;9.20;;;4.90;;
18568;SDS011;14780;48.316;-1.050;2023-07-31T02:04:10;8.30;;;4.60;;
18568;SDS011;14780;48.316;-1.050;2023-07-31T02:06:55;8.88;;;4.60;;
18568;SDS011;14780;48.316;-1.050;2023-07-31T02:09:40;9.70;;;4.43;;
18568;SDS011;14780;48.316;-1.050;2023-07-31T02:12:24;13.98;;;5.15;;
18568;SDS011;14780;48.316;-1.050;2023-07-31T02:15:11;10.57;;;5.17;;
18568;SDS011;14780;48.316;-1.050;2023-07-31T02:17:55;9.63;;;4.77;;
18568;SDS011;14780;48.316;-1.050;2023-07-31T02:20:41;9.57;;;4.20;;
18568;SDS011;14780;48.316;-1.050;2023-07-31T02:23:26;9.30;;;4.63;;
18568;SDS011;14780;48.316;-1.050;2023-07-31T02:26:10;8.70;;;4.63;;
18568;SDS011;14780;48.316;-1.050;2023-07-31T02:28:55;10.02;;;4.72;;
18568;SDS011;14780;48.316;-1.050;2023-07-31T02:31:40;8.85;;;4.53;;
18568;SDS011;14780;48.316;-1.050;2023-07-31T02:34:24;9.07;;;4.90;;
18568;SDS011;14780;48.316;-1.050;2023-07-31T02:37:09;8.02;;;4.50;;
18568;SDS011;14780;48.316;-1.050;2023-07-31T02:39:54;7.88;;;4.70;;
18568;SDS011;14780;48.316;-1.050;2023-07-31T02:42:39;7.57;;;4.57;;
18568;SDS011;14780;48.316;-1.050;2023-07-31T02:45:23;10.93;;;4.65;;
18568;SDS011;14780;48.316;-1.050;2023-07-31T02:48:08;9.77;;;4.90;;
18568;SDS011;14780;48.316;-1.050;2023-07-31T02:50:53;10.95;;;4.82;;
18568;SDS011;14780;48.316;-1.050;2023-07-31T02:53:37;8.73;;;4.80;;
18568;SDS011;14780;48.316;-1.050;2023-07-31T02:56:22;10.13;;;4.85;;
18568;SDS011;14780;48.316;-1.050;2023-07-31T02:59:07;8.57;;;4.70;;
18568;SDS011;14780;48.316;-1.050;2023-07-31T03:01:51;8.40;;;5.00;;
18568;SDS011;14780;48.316;-1.050;2023-07-31T03:04:36;9.02;;;4.82;;
18568;SDS011;14780;48.316;-1.050;2023-07-31T03:07:20;7.30;;;4.30;;
18568;SDS011;14780;48.316;-1.050;2023-07-31T03:10:05;9.38;;;4.85;;
18568;SDS011;14780;48.316;-1.050;2023-07-31T03:12:50;9.65;;;4.50;;
18568;SDS011;14780;48.316;-1.050;2023-07-31T03:15:35;9.05;;;4.88;;
18568;SDS011;14780;48.316;-1.050;2023-07-31T03:18:19;8.80;;;4.55;;
18568;SDS011;14780;48.316;-1.050;2023-07-31T03:21:04;9.25;;;5.03;;
18568;SDS011;14780;48.316;-1.050;2023-07-31T03:23:49;8.63;;;4.55;;
18568;SDS011;14780;48.316;-1.050;2023-07-31T03:26:33;9.02;;;4.65;;
18568;SDS011;14780;48.316;-1.050;2023-07-31T03:29:19;8.77;;;4.60;;
18568;SDS011;14780;48.316;-1.050;2023-07-31T03:32:04;8.10;;;4.50;;
18568;SDS011;14780;48.316;-1.050;2023-07-31T03:34:49;9.43;;;4.70;;
18568;SDS011;14780;48.316;-1.050;2023-07-31T03:37:34;10.15;;;4.60;;
18568;SDS011;14780;48.316;-1.050;2023-07-31T03:40:19;7.32;;;4.25;;
18568;SDS011;14780;48.316;-1.050;2023-07-31T03:43:04;8.70;;;4.50;;
18568;SDS011;14780;48.316;-1.050;2023-07-31T03:45:49;7.72;;;4.38;;
18568;SDS011;14780;48.316;-1.050;2023-07-31T03:48:34;10.00;;;4.43;;
18568;SDS011;14780;48.316;-1.050;2023-07-31T03:51:18;9.40;;;4.55;;
18568;SDS011;14780;48.316;-1.050;2023-07-31T03:54:03;9.13;;;4.70;;
18568;SDS011;14780;48.316;-1.050;2023-07-31T03:56:47;9.40;;;4.55;;
18568;SDS011;14780;48.316;-1.050;2023-07-31T03:59:32;7.70;;;4.55;;
18568;SDS011;14780;48.316;-1.050;2023-07-31T04:02:16;7.93;;;4.60;;
18568;SDS011;14780;48.316;-1.050;2023-07-31T04:05:02;10.10;;;4.90;;
18568;SDS011;14780;48.316;-1.050;2023-07-31T04:07:47;6.87;;;4.43;;
18568;SDS011;14780;48.316;-1.050;2023-07-31T04:10:32;8.75;;;4.25;;
18568;SDS011;14780;48.316;-1.050;2023-07-31T04:13:17;7.97;;;4.57;;
18568;SDS011;14780;48.316;-1.050;2023-07-31T04:16:01;6.88;;;4.20;;
18568;SDS011;14780;48.316;-1.050;2023-07-31T04:18:46;8.27;;;4.65;;
18568;SDS011;14780;48.316;-1.050;2023-07-31T04:21:31;7.75;;;4.30;;
18568;SDS011;14780;48.316;-1.050;2023-07-31T04:24:16;8.05;;;4.40;;
18568;SDS011;14780;48.316;-1.050;2023-07-31T04:27:07;9.80;;;4.90;;
18568;SDS011;14780;48.316;-1.050;2023-07-31T04:29:52;7.72;;;4.32;;
18568;SDS011;14780;48.316;-1.050;2023-07-31T04:32:36;9.40;;;4.97;;
18568;SDS011;14780;48.316;-1.050;2023-07-31T04:35:21;8.63;;;4.80;;
18568;SDS011;14780;48.316;-1.050;2023-07-31T04:38:05;8.57;;;4.63;;
18568;SDS011;14780;48.316;-1.050;2023-07-31T04:40:50;9.50;;;4.60;;
18568;SDS011;14780;48.316;-1.050;2023-07-31T04:43:35;9.93;;;4.57;;
18568;SDS011;14780;48.316;-1.050;2023-07-31T04:46:22;7.78;;;4.45;;
18568;SDS011;14780;48.316;-1.050;2023-07-31T04:49:07;8.67;;;4.40;;
18568;SDS011;14780;48.316;-1.050;2023-07-31T04:51:51;7.68;;;4.40;;
18568;SDS011;14780;48.316;-1.050;2023-07-31T04:54:36;10.25;;;4.57;;
18568;SDS011;14780;48.316;-1.050;2023-07-31T04:57:21;7.57;;;4.60;;
18568;SDS011;14780;48.316;-1.050;2023-07-31T05:00:05;10.80;;;4.68;;
18568;SDS011;14780;48.316;-1.050;2023-07-31T05:02:51;8.85;;;4.40;;
18568;SDS011;14780;48.316;-1.050;2023-07-31T05:05:36;8.80;;;3.95;;
18568;SDS011;14780;48.316;-1.050;2023-07-31T05:08:21;7.38;;;4.18;;
18568;SDS011;14780;48.316;-1.050;2023-07-31T05:11:05;10.00;;;4.47;;
18568;SDS011;14780;48.316;-1.050;2023-07-31T05:13:50;7.80;;;4.13;;
18568;SDS011;14780;48.316;-1.050;2023-07-31T05:16:34;8.35;;;4.32;;
18568;SDS011;14780;48.316;-1.050;2023-07-31T05:19:19;8.27;;;4.28;;
18568;SDS011;14780;48.316;-1.050;2023-07-31T05:22:04;9.17;;;4.00;;
18568;SDS011;14780;48.316;-1.050;2023-07-31T05:24:49;8.20;;;4.40;;
18568;SDS011;14780;48.316;-1.050;2023-07-31T05:27:34;6.95;;;4.22;;
18568;SDS011;14780;48.316;-1.050;2023-07-31T05:30:19;7.18;;;4.40;;
18568;SDS011;14780;48.316;-1.050;2023-07-31T05:33:05;7.65;;;4.15;;
18568;SDS011;14780;48.316;-1.050;2023-07-31T05:35:49;7.43;;;4.30;;
18568;SDS011;14780;48.316;-1.050;2023-07-31T05:38:34;8.25;;;4.30;;
18568;SDS011;14780;48.316;-1.050;2023-07-31T05:41:18;7.43;;;4.35;;
18568;SDS011;14780;48.316;-1.050;2023-07-31T05:44:03;7.65;;;4.18;;
18568;SDS011;14780;48.316;-1.050;2023-07-31T05:46:48;7.10;;;4.13;;
18568;SDS011;14780;48.316;-1.050;2023-07-31T05:49:32;8.10;;;4.15;;
18568;SDS011;14780;48.316;-1.050;2023-07-31T05:52:18;8.52;;;4.10;;
18568;SDS011;14780;48.316;-1.050;2023-07-31T05:55:03;9.82;;;4.72;;
18568;SDS011;14780;48.316;-1.050;2023-07-31T05:57:48;7.40;;;4.30;;
18568;SDS011;14780;48.316;-1.050;2023-07-31T06:00:32;7.57;;;4.17;;
18568;SDS011;14780;48.316;-1.050;2023-07-31T06:03:17;8.25;;;4.15;;
18568;SDS011;14780;48.316;-1.050;2023-07-31T06:06:02;7.25;;;4.13;;
18568;SDS011;14780;48.316;-1.050;2023-07-31T06:08:46;8.02;;;4.10;;
18568;SDS011;14780;48.316;-1.050;2023-07-31T06:11:31;7.95;;;4.40;;
18568;SDS011;14780;48.316;-1.050;2023-07-31T06:14:15;6.90;;;3.80;;
18568;SDS011;14780;48.316;-1.050;2023-07-31T06:17:00;8.52;;;4.05;;
18568;SDS011;14780;48.316;-1.050;2023-07-31T06:19:44;7.15;;;4.28;;
18568;SDS011;14780;48.316;-1.050;2023-07-31T06:22:29;7.18;;;4.00;;
18568;SDS011;14780;48.316;-1.050;2023-07-31T06:25:14;7.18;;;4.10;;
18568;SDS011;14780;48.316;-1.050;2023-07-31T06:27:59;6.50;;;3.80;;
18568;SDS011;14780;48.316;-1.050;2023-07-31T06:30:44;8.70;;;4.35;;
18568;SDS011;14780;48.316;-1.050;2023-07-31T06:33:28;8.80;;;4.35;;
18568;SDS011;14780;48.316;-1.050;2023-07-31T06:36:13;7.28;;;4.13;;
18568;SDS011;14780;48.316;-1.050;2023-07-31T06:38:58;9.10;;;4.20;;
18568;SDS011;14780;48.316;-1.050;2023-07-31T06:41:43;6.50;;;4.28;;
18568;SDS011;14780;48.316;-1.050;2023-07-31T06:44:29;8.63;;;4.15;;
18568;SDS011;14780;48.316;-1.050;2023-07-31T06:47:14;8.27;;;4.40;;
18568;SDS011;14780;48.316;-1.050;2023-07-31T06:49:58;7.82;;;4.25;;
18568;SDS011;14780;48.316;-1.050;2023-07-31T06:52:44;7.20;;;3.80;;
18568;SDS011;14780;48.316;-1.050;2023-07-31T06:55:28;7.90;;;4.10;;
18568;SDS011;14780;48.316;-1.050;2023-07-31T06:58:13;6.85;;;3.88;;
18568;SDS011;14780;48.316;-1.050;2023-07-31T07:00:58;7.35;;;4.03;;
18568;SDS011;14780;48.316;-1.050;2023-07-31T07:03:43;8.52;;;4.38;;
18568;SDS011;14780;48.316;-1.050;2023-07-31T07:06:27;6.93;;;3.72;;
18568;SDS011;14780;48.316;-1.050;2023-07-31T07:09:12;7.27;;;4.00;;
18568;SDS011;14780;48.316;-1.050;2023-07-31T07:11:56;7.30;;;4.05;;
18568;SDS011;14780;48.316;-1.050;2023-07-31T07:14:41;8.60;;;3.75;;
18568;SDS011;14780;48.316;-1.050;2023-07-31T07:17:26;6.30;;;3.78;;
18568;SDS011;14780;48.316;-1.050;2023-07-31T07:20:11;7.35;;;3.90;;
18568;SDS011;14780;48.316;-1.050;2023-07-31T07:22:56;6.60;;;3.75;;
18568;SDS011;14780;48.316;-1.050;2023-07-31T07:25:41;8.05;;;3.95;;
18568;SDS011;14780;48.316;-1.050;2023-07-31T07:28:26;7.90;;;3.90;;
18568;SDS011;14780;48.316;-1.050;2023-07-31T07:31:12;7.30;;;3.72;;
18568;SDS011;14780;48.316;-1.050;2023-07-31T07:33:57;7.70;;;4.07;;
18568;SDS011;14780;48.316;-1.050;2023-07-31T07:36:41;7.18;;;4.22;;
18568;SDS011;14780;48.316;-1.050;2023-07-31T07:39:26;6.55;;;3.90;;
18568;SDS011;14780;48.316;-1.050;2023-07-31T07:42:10;7.93;;;3.93;;
18568;SDS011;14780;48.316;-1.050;2023-07-31T07:44:55;6.40;;;4.00;;
18568;SDS011;14780;48.316;-1.050;2023-07-31T07:47:40;7.82;;;4.15;;
18568;SDS011;14780;48.316;-1.050;2023-07-31T07:50:25;7.30;;;3.75;;
18568;SDS011;14780;48.316;-1.050;2023-07-31T07:53:10;8.43;;;4.10;;
18568;SDS011;14780;48.316;-1.050;2023-07-31T07:55:54;7.28;;;3.80;;
18568;SDS011;14780;48.316;-1.050;2023-07-31T07:58:39;7.73;;;3.70;;
18568;SDS011;14780;48.316;-1.050;2023-07-31T08:01:24;7.15;;;3.65;;
18568;SDS011;14780;48.316;-1.050;2023-07-31T08:04:09;6.28;;;3.40;;
18568;SDS011;14780;48.316;-1.050;2023-07-31T08:06:54;8.00;;;3.60;;
18568;SDS011;14780;48.316;-1.050;2023-07-31T08:09:38;6.63;;;3.83;;
18568;SDS011;14780;48.316;-1.050;2023-07-31T08:12:23;8.23;;;4.17;;
18568;SDS011;14780;48.316;-1.050;2023-07-31T08:15:09;8.70;;;4.18;;
18568;SDS011;14780;48.316;-1.050;2023-07-31T08:17:53;7.55;;;3.95;;
18568;SDS011;14780;48.316;-1.050;2023-07-31T08:20:38;6.30;;;3.50;;
18568;SDS011;14780;48.316;-1.050;2023-07-31T08:23:22;7.05;;;3.60;;
18568;SDS011;14780;48.316;-1.050;2023-07-31T08:26:07;6.37;;;3.40;;
18568;SDS011;14780;48.316;-1.050;2023-07-31T08:28:51;8.18;;;3.63;;
18568;SDS011;14780;48.316;-1.050;2023-07-31T08:31:36;6.50;;;3.55;;
18568;SDS011;14780;48.316;-1.050;2023-07-31T08:34:20;8.27;;;3.93;;
18568;SDS011;14780;48.316;-1.050;2023-07-31T08:37:05;6.47;;;3.95;;
18568;SDS011;14780;48.316;-1.050;2023-07-31T08:39:50;7.78;;;3.63;;
18568;SDS011;14780;48.316;-1.050;2023-07-31T08:42:42;6.53;;;3.70;;
18568;SDS011;14780;48.316;-1.050;2023-07-31T08:45:28;6.38;;;3.50;;
18568;SDS011;14780;48.316;-1.050;2023-07-31T08:48:15;6.70;;;3.55;;
18568;SDS011;14780;48.316;-1.050;2023-07-31T08:51:00;8.30;;;3.63;;
18568;SDS011;14780;48.316;-1.050;2023-07-31T08:53:45;6.38;;;3.20;;
18568;SDS011;14780;48.316;-1.050;2023-07-31T08:56:31;6.95;;;3.47;;
18568;SDS011;14780;48.316;-1.050;2023-07-31T08:59:16;7.53;;;3.35;;
18568;SDS011;14780;48.316;-1.050;2023-07-31T09:02:05;5.93;;;3.33;;
18568;SDS011;14780;48.316;-1.050;2023-07-31T09:04:51;7.00;;;3.57;;
18568;SDS011;14780;48.316;-1.050;2023-07-31T09:07:36;6.10;;;3.43;;
18568;SDS011;14780;48.316;-1.050;2023-07-31T09:10:21;6.53;;;3.63;;
18568;SDS011;14780;48.316;-1.050;2023-07-31T09:13:06;5.63;;;3.05;;
18568;SDS011;14780;48.316;-1.050;2023-07-31T09:15:52;6.68;;;3.30;;
18568;SDS011;14780;48.316;-1.050;2023-07-31T09:18:55;6.70;;;3.58;;
18568;SDS011;14780;48.316;-1.050;2023-07-31T09:21:47;4.93;;;3.13;;
18568;SDS011;14780;48.316;-1.050;2023-07-31T09:24:33;5.97;;;3.20;;
18568;SDS011;14780;48.316;-1.050;2023-07-31T09:27:18;6.95;;;3.38;;
18568;SDS011;14780;48.316;-1.050;2023-07-31T09:30:02;7.30;;;3.28;;
18568;SDS011;14780;48.316;-1.050;2023-07-31T09:32:48;6.18;;;3.10;;
18568;SDS011;14780;48.316;-1.050;2023-07-31T09:35:34;5.78;;;3.08;;
18568;SDS011;14780;48.316;-1.050;2023-07-31T09:38:21;6.80;;;2.83;;
18568;SDS011;14780;48.316;-1.050;2023-07-31T09:41:06;5.18;;;2.95;;
18568;SDS011;14780;48.316;-1.050;2023-07-31T09:43:55;5.72;;;3.30;;
18568;SDS011;14780;48.316;-1.050;2023-07-31T09:46:40;5.23;;;2.80;;
18568;SDS011;14780;48.316;-1.050;2023-07-31T09:49:24;6.60;;;3.00;;
18568;SDS011;14780;48.316;-1.050;2023-07-31T09:52:11;4.75;;;2.70;;
18568;SDS011;14780;48.316;-1.050;2023-07-31T09:54:57;5.90;;;2.72;;
18568;SDS011;14780;48.316;-1.050;2023-07-31T09:57:46;5.35;;;2.90;;
18568;SDS011;14780;48.316;-1.050;2023-07-31T10:00:32;4.72;;;2.55;;
18568;SDS011;14780;48.316;-1.050;2023-07-31T10:03:17;4.93;;;2.90;;
18568;SDS011;14780;48.316;-1.050;2023-07-31T10:06:03;5.05;;;2.83;;
18568;SDS011;14780;48.316;-1.050;2023-07-31T10:08:49;4.45;;;2.60;;
18568;SDS011;14780;48.316;-1.050;2023-07-31T10:11:37;5.60;;;2.60;;
18568;SDS011;14780;48.316;-1.050;2023-07-31T10:14:27;4.07;;;2.23;;
18568;SDS011;14780;48.316;-1.050;2023-07-31T10:17:13;5.57;;;2.75;;
18568;SDS011;14780;48.316;-1.050;2023-07-31T10:19:59;4.53;;;2.60;;
18568;SDS011;14780;48.316;-1.050;2023-07-31T10:22:47;3.85;;;2.58;;
18568;SDS011;14780;48.316;-1.050;2023-07-31T10:25:32;5.25;;;2.75;;
18568;SDS011;14780;48.316;-1.050;2023-07-31T10:28:17;3.88;;;2.22;;
18568;SDS011;14780;48.316;-1.050;2023-07-31T10:31:03;4.05;;;2.40;;
18568;SDS011;14780;48.316;-1.050;2023-07-31T10:33:49;3.60;;;2.30;;
18568;SDS011;14780;48.316;-1.050;2023-07-31T10:36:35;3.73;;;2.43;;
18568;SDS011;14780;48.316;-1.050;2023-07-31T10:39:37;5.03;;;2.67;;
18568;SDS011;14780;48.316;-1.050;2023-07-31T10:42:36;4.32;;;2.75;;
18568;SDS011;14780;48.316;-1.050;2023-07-31T10:48:38;5.03;;;2.72;;
18568;SDS011;14780;48.316;-1.050;2023-07-31T10:51:26;4.35;;;2.70;;
18568;SDS011;14780;48.316;-1.050;2023-07-31T10:54:20;4.47;;;2.67;;
18568;SDS011;14780;48.316;-1.050;2023-07-31T10:57:18;4.57;;;2.60;;
18568;SDS011;14780;48.316;-1.050;2023-07-31T11:00:19;3.83;;;2.45;;
18568;SDS011;14780;48.316;-1.050;2023-07-31T11:03:15;5.68;;;2.80;;
18568;SDS011;14780;48.316;-1.050;2023-07-31T11:06:01;4.47;;;3.10;;
18568;SDS011;14780;48.316;-1.050;2023-07-31T11:08:47;4.15;;;2.60;;
18568;SDS011;14780;48.316;-1.050;2023-07-31T11:11:33;5.33;;;2.70;;
18568;SDS011;14780;48.316;-1.050;2023-07-31T11:14:18;7.07;;;2.97;;
18568;SDS011;14780;48.316;-1.050;2023-07-31T11:17:07;5.10;;;2.90;;
18568;SDS011;14780;48.316;-1.050;2023-07-31T11:19:52;5.80;;;3.10;;
18568;SDS011;14780;48.316;-1.050;2023-07-31T11:22:36;4.90;;;3.03;;
18568;SDS011;14780;48.316;-1.050;2023-07-31T11:25:21;4.97;;;2.75;;
18568;SDS011;14780;48.316;-1.050;2023-07-31T11:28:11;4.85;;;2.88;;
18568;SDS011;14780;48.316;-1.050;2023-07-31T11:30:57;7.65;;;3.33;;
18568;SDS011;14780;48.316;-1.050;2023-07-31T11:33:41;5.40;;;2.97;;
18568;SDS011;14780;48.316;-1.050;2023-07-31T11:36:26;6.30;;;3.10;;
18568;SDS011;14780;48.316;-1.050;2023-07-31T11:39:11;5.07;;;3.00;;
18568;SDS011;14780;48.316;-1.050;2023-07-31T11:41:59;4.88;;;2.95;;
18568;SDS011;14780;48.316;-1.050;2023-07-31T11:44:44;5.05;;;2.72;;
18568;SDS011;14780;48.316;-1.050;2023-07-31T11:47:35;5.20;;;3.13;;
18568;SDS011;14780;48.316;-1.050;2023-07-31T11:50:21;5.88;;;3.20;;
18568;SDS011;14780;48.316;-1.050;2023-07-31T11:53:09;4.72;;;2.80;;
18568;SDS011;14780;48.316;-1.050;2023-07-31T11:55:54;6.78;;;3.08;;
18568;SDS011;14780;48.316;-1.050;2023-07-31T11:58:41;4.97;;;3.00;;
18568;SDS011;14780;48.316;-1.050;2023-07-31T12:01:29;6.15;;;3.47;;
18568;SDS011;14780;48.316;-1.050;2023-07-31T12:04:14;5.45;;;2.90;;
18568;SDS011;14780;48.316;-1.050;2023-07-31T12:07:02;5.18;;;3.10;;
18568;SDS011;14780;48.316;-1.050;2023-07-31T12:09:53;5.22;;;3.00;;
18568;SDS011;14780;48.316;-1.050;2023-07-31T12:12:38;4.88;;;2.85;;
18568;SDS011;14780;48.316;-1.050;2023-07-31T12:15:28;6.20;;;3.10;;
18568;SDS011;14780;48.316;-1.050;2023-07-31T12:18:18;4.78;;;3.03;;
18568;SDS011;14780;48.316;-1.050;2023-07-31T12:21:04;5.70;;;3.20;;
18568;SDS011;14780;48.316;-1.050;2023-07-31T12:23:51;5.07;;;3.15;;
18568;SDS011;14780;48.316;-1.050;2023-07-31T12:26:37;5.25;;;3.15;;
18568;SDS011;14780;48.316;-1.050;2023-07-31T12:29:22;5.00;;;2.95;;
18568;SDS011;14780;48.316;-1.050;2023-07-31T12:32:20;6.35;;;3.20;;
18568;SDS011;14780;48.316;-1.050;2023-07-31T12:35:06;6.13;;;3.20;;
18568;SDS011;14780;48.316;-1.050;2023-07-31T12:37:52;5.63;;;3.55;;
18568;SDS011;14780;48.316;-1.050;2023-07-31T12:40:40;4.85;;;2.95;;
18568;SDS011;14780;48.316;-1.050;2023-07-31T12:43:25;4.93;;;2.90;;
18568;SDS011;14780;48.316;-1.050;2023-07-31T12:46:10;5.45;;;3.30;;
18568;SDS011;14780;48.316;-1.050;2023-07-31T12:48:55;5.37;;;3.17;;
18568;SDS011;14780;48.316;-1.050;2023-07-31T12:51:40;6.47;;;3.40;;
18568;SDS011;14780;48.316;-1.050;2023-07-31T12:54:24;6.18;;;3.20;;
18568;SDS011;14780;48.316;-1.050;2023-07-31T12:57:09;5.17;;;2.97;;
18568;SDS011;14780;48.316;-1.050;2023-07-31T12:59:53;6.20;;;3.33;;
18568;SDS011;14780;48.316;-1.050;2023-07-31T13:02:38;5.40;;;3.30;;
18568;SDS011;14780;48.316;-1.050;2023-07-31T13:05:23;6.00;;;3.35;;
18568;SDS011;14780;48.316;-1.050;2023-07-31T13:08:08;6.65;;;3.00;;
18568;SDS011;14780;48.316;-1.050;2023-07-31T13:10:53;4.30;;;2.90;;
18568;SDS011;14780;48.316;-1.050;2023-07-31T13:13:37;5.40;;;3.07;;
18568;SDS011;14780;48.316;-1.050;2023-07-31T13:16:22;6.32;;;3.10;;
18568;SDS011;14780;48.316;-1.050;2023-07-31T13:19:06;5.20;;;2.80;;
18568;SDS011;14780;48.316;-1.050;2023-07-31T13:21:51;5.22;;;3.05;;
18568;SDS011;14780;48.316;-1.050;2023-07-31T13:24:35;4.25;;;2.70;;
18568;SDS011;14780;48.316;-1.050;2023-07-31T13:27:20;5.60;;;3.13;;
18568;SDS011;14780;48.316;-1.050;2023-07-31T13:30:05;5.63;;;3.00;;
18568;SDS011;14780;48.316;-1.050;2023-07-31T13:32:50;5.55;;;3.20;;
18568;SDS011;14780;48.316;-1.050;2023-07-31T13:35:35;4.78;;;2.80;;
18568;SDS011;14780;48.316;-1.050;2023-07-31T13:38:19;5.63;;;2.80;;
18568;SDS011;14780;48.316;-1.050;2023-07-31T13:41:04;4.78;;;2.88;;
18568;SDS011;14780;48.316;-1.050;2023-07-31T13:43:49;5.22;;;2.78;;
18568;SDS011;14780;48.316;-1.050;2023-07-31T13:46:33;5.13;;;2.60;;
18568;SDS011;14780;48.316;-1.050;2023-07-31T13:49:18;4.88;;;2.72;;
18568;SDS011;14780;48.316;-1.050;2023-07-31T13:52:03;6.65;;;2.90;;
18568;SDS011;14780;48.316;-1.050;2023-07-31T13:54:48;5.43;;;2.95;;
18568;SDS011;14780;48.316;-1.050;2023-07-31T13:57:32;5.07;;;2.90;;
18568;SDS011;14780;48.316;-1.050;2023-07-31T14:00:18;5.88;;;2.88;;
18568;SDS011;14780;48.316;-1.050;2023-07-31T14:03:02;4.80;;;2.97;;
18568;SDS011;14780;48.316;-1.050;2023-07-31T14:05:47;5.50;;;2.72;;
18568;SDS011;14780;48.316;-1.050;2023-07-31T14:08:31;4.60;;;2.75;;
18568;SDS011;14780;48.316;-1.050;2023-07-31T14:11:16;5.00;;;2.78;;
18568;SDS011;14780;48.316;-1.050;2023-07-31T14:14:01;4.65;;;2.70;;
18568;SDS011;14780;48.316;-1.050;2023-07-31T14:16:46;4.75;;;2.50;;
18568;SDS011;14780;48.316;-1.050;2023-07-31T14:19:30;3.90;;;2.70;;
18568;SDS011;14780;48.316;-1.050;2023-07-31T14:22:15;4.30;;;2.58;;
18568;SDS011;14780;48.316;-1.050;2023-07-31T14:25:10;4.40;;;2.65;;
18568;SDS011;14780;48.316;-1.050;2023-07-31T14:27:55;3.78;;;2.40;;
18568;SDS011;14780;48.316;-1.050;2023-07-31T14:30:39;4.00;;;2.60;;
18568;SDS011;14780;48.316;-1.050;2023-07-31T14:33:24;3.80;;;2.60;;
18568;SDS011;14780;48.316;-1.050;2023-07-31T14:36:09;4.63;;;2.53;;
18568;SDS011;14780;48.316;-1.050;2023-07-31T14:38:54;4.78;;;2.40;;
18568;SDS011;14780;48.316;-1.050;2023-07-31T14:41:38;3.67;;;2.30;;
18568;SDS011;14780;48.316;-1.050;2023-07-31T14:44:23;3.13;;;2.10;;
18568;SDS011;14780;48.316;-1.050;2023-07-31T14:47:08;4.40;;;2.33;;
18568;SDS011;14780;48.316;-1.050;2023-07-31T14:49:52;3.10;;;2.15;;
18568;SDS011;14780;48.316;-1.050;2023-07-31T14:52:37;4.82;;;2.38;;
18568;SDS011;14780;48.316;-1.050;2023-07-31T14:55:22;3.23;;;2.10;;
18568;SDS011;14780;48.316;-1.050;2023-07-31T14:58:07;4.00;;;2.30;;
18568;SDS011;14780;48.316;-1.050;2023-07-31T15:00:54;3.63;;;2.22;;
18568;SDS011;14780;48.316;-1.050;2023-07-31T15:03:38;3.90;;;2.30;;
18568;SDS011;14780;48.316;-1.050;2023-07-31T15:06:23;3.08;;;2.22;;
18568;SDS011;14780;48.316;-1.050;2023-07-31T15:09:08;3.30;;;2.20;;
18568;SDS011;14780;48.316;-1.050;2023-07-31T15:11:52;3.53;;;2.28;;
18568;SDS011;14780;48.316;-1.050;2023-07-31T15:14:37;2.80;;;2.00;;
18568;SDS011;14780;48.316;-1.050;2023-07-31T15:17:22;3.33;;;2.13;;
18568;SDS011;14780;48.316;-1.050;2023-07-31T15:20:09;3.58;;;2.13;;
18568;SDS011;14780;48.316;-1.050;2023-07-31T15:22:54;4.25;;;2.20;;
18568;SDS011;14780;48.316;-1.050;2023-07-31T15:25:40;2.33;;;1.70;;
18568;SDS011;14780;48.316;-1.050;2023-07-31T15:28:25;4.55;;;2.10;;
18568;SDS011;14780;48.316;-1.050;2023-07-31T15:31:09;2.90;;;1.85;;
18568;SDS011;14780;48.316;-1.050;2023-07-31T15:33:54;2.88;;;1.63;;
18568;SDS011;14780;48.316;-1.050;2023-07-31T15:36:39;1.93;;;1.50;;
18568;SDS011;14780;48.316;-1.050;2023-07-31T15:39:24;2.60;;;1.88;;
18568;SDS011;14780;48.316;-1.050;2023-07-31T15:42:08;2.72;;;1.95;;
18568;SDS011;14780;48.316;-1.050;2023-07-31T15:44:53;2.38;;;1.70;;
18568;SDS011;14780;48.316;-1.050;2023-07-31T15:47:37;2.67;;;1.80;;
18568;SDS011;14780;48.316;-1.050;2023-07-31T15:50:23;2.35;;;1.75;;
18568;SDS011;14780;48.316;-1.050;2023-07-31T15:53:07;1.98;;;1.67;;
18568;SDS011;14780;48.316;-1.050;2023-07-31T15:55:52;2.07;;;1.60;;
18568;SDS011;14780;48.316;-1.050;2023-07-31T15:58:37;2.80;;;2.10;;
18568;SDS011;14780;48.316;-1.050;2023-07-31T16:01:21;2.33;;;1.90;;
18568;SDS011;14780;48.316;-1.050;2023-07-31T16:04:06;3.35;;;1.90;;
18568;SDS011;14780;48.316;-1.050;2023-07-31T16:06:50;2.53;;;1.85;;
18568;SDS011;14780;48.316;-1.050;2023-07-31T16:09:35;3.63;;;2.20;;
18568;SDS011;14780;48.316;-1.050;2023-07-31T16:12:20;3.05;;;1.98;;
18568;SDS011;14780;48.316;-1.050;2023-07-31T16:15:05;3.40;;;2.05;;
18568;SDS011;14780;48.316;-1.050;2023-07-31T16:17:50;3.07;;;2.00;;
18568;SDS011;14780;48.316;-1.050;2023-07-31T16:20:35;2.92;;;2.03;;
18568;SDS011;14780;48.316;-1.050;2023-07-31T16:23:20;3.22;;;1.98;;
18568;SDS011;14780;48.316;-1.050;2023-07-31T16:26:05;3.28;;;2.03;;
18568;SDS011;14780;48.316;-1.050;2023-07-31T16:28:49;2.58;;;1.90;;
18568;SDS011;14780;48.316;-1.050;2023-07-31T16:31:34;3.50;;;1.90;;
18568;SDS011;14780;48.316;-1.050;2023-07-31T16:34:19;2.77;;;1.97;;